Heydar Aliyev — 9HFS7 — position and weather

sailwx.info

Track history (hours):
 
Tides and Currents Weather Stations Pressure Air Temp Water Temp Dewpoint Dewpoint Depression Visibility Wind Speed Wind Dir Waves Ship Positions

Heydar Aliyev

Last reported at 2016-Jun-27 02:20 UTC. Time now 2016-Jun-27 22:19 UTC.
Position N 13°45' W 018°02'.

Length 274 m; draft 9.3 m.

Type: Tanker. MMSI: 215213000.

Date/timePositionNaut miles runAvg speedWind from/ knotsBaromVisibWave heightAir tempDewpointWater temp
2016-Jun-27 02:20N 13°45' W 018°02'1213.3
2016-Jun-27 01:27N 13°57' W 018°03'4413.7
2016-Jun-26 22:15N 14°41' W 018°06'1413.9
2016-Jun-26 21:14N 14°55' W 018°07'1013.3
2016-Jun-26 20:30N 15°05' W 018°08'  
2016-Jun-24 13:12N 26°41' W 015°25'1313.8
2016-Jun-24 12:17N 26°48' W 015°14'1013.8
2016-Jun-24 11:33N 26°54' W 015°05'1713.8
2016-Jun-24 10:20N 27°03' W 014°49'1214.0
2016-Jun-24 09:29N 27°08' W 014°37'16813.0
2016-Jun-23 20:33N 29°24' W 012°45'1414.1
2016-Jun-23 19:33N 29°37' W 012°36'1414.1
2016-Jun-23 18:33N 29°49' W 012°28'1413.6
2016-Jun-23 17:32N 30°01' W 012°20'1613.4
2016-Jun-23 16:20N 30°14' W 012°10'1113.6
2016-Jun-23 15:33N 30°23' W 012°04'9513.4
2016-Jun-23 08:29N 31°45' W 011°07'7 7.8
2016-Jun-23 07:33N 31°51' W 011°02'2713.6
2016-Jun-23 05:33N 32°14' W 010°46'1413.6
2016-Jun-23 04:33N 32°26' W 010°37'1313.6
2016-Jun-23 03:33N 32°37' W 010°29'1413.7
2016-Jun-23 02:33N 32°49' W 010°20'1413.6
2016-Jun-23 01:33N 32°59' W 010°09'1913.6
2016-Jun-23 00:11N 33°11' W 009°52'914.0
2016-Jun-22 23:33N 33°17' W 009°45'1613.9
2016-Jun-22 22:25N 33°28' W 009°31'1213.8
2016-Jun-22 21:31N 33°36' W 009°20'1414.0
2016-Jun-22 20:33N 33°45' W 009°08'1413.9
2016-Jun-22 19:32N 33°55' W 008°55'1413.8
2016-Jun-22 18:33N 34°04' W 008°43'1413.7
2016-Jun-22 17:31N 34°14' W 008°31'1313.5
2016-Jun-22 16:33N 34°22' W 008°19'1413.3
2016-Jun-22 15:32N 34°32' W 008°07'1313.2
2016-Jun-22 14:33N 34°40' W 007°55'1313.3
2016-Jun-22 13:33N 34°49' W 007°43'1313.5
2016-Jun-22 12:33N 34°58' W 007°31'1313.5
2016-Jun-22 11:33N 35°07' W 007°19'1513.6
2016-Jun-22 10:29N 35°17' W 007°06'2913.6
2016-Jun-22 08:19N 35°37' W 006°40'5712.0
2016-Jun-22 03:33N 35°59' W 005°34'1211.9
2016-Jun-22 02:33N 36°05' W 005°22'2 1.5
2016-Jun-22 01:33N 36°06' W 005°22'1 1.1
2016-Jun-22 00:33N 36°05' W 005°21'0 0.3
2016-Jun-21 23:33N 36°05' W 005°22'5 4.7
2016-Jun-21 22:30N 36°10' W 005°24'0 0.0
2016-Jun-21 21:33N 36°10' W 005°24'0 0.2
2016-Jun-21 20:33N 36°10' W 005°24'0 0.0
2016-Jun-21 19:33N 36°10' W 005°24'0 0.1
2016-Jun-21 18:27N 36°10' W 005°24'0 0.1
2016-Jun-21 17:33N 36°10' W 005°24'0 0.0
2016-Jun-21 16:33N 36°10' W 005°24'0 0.0
2016-Jun-21 15:33N 36°10' W 005°24'0 0.0
2016-Jun-21 14:33N 36°10' W 005°24'0 0.1
2016-Jun-21 13:21N 36°10' W 005°24'0 0.0
2016-Jun-21 12:33N 36°10' W 005°24'0 0.0
2016-Jun-21 11:33N 36°10' W 005°24'0 0.0
2016-Jun-21 10:30N 36°10' W 005°24'0 0.0
2016-Jun-21 09:33N 36°10' W 005°24'0 0.0
2016-Jun-21 08:33N 36°10' W 005°24'0 0.0
2016-Jun-21 07:33N 36°10' W 005°24'0 0.0
2016-Jun-21 04:33N 36°10' W 005°24'0 0.1
2016-Jun-21 03:30N 36°10' W 005°24'0 0.1
2016-Jun-21 02:30N 36°10' W 005°24'0 0.1
2016-Jun-21 01:30N 36°10' W 005°24'3 2.9
2016-Jun-21 00:33N 36°07' W 005°24'3 3.1
2016-Jun-20 23:33N 36°04' W 005°23'0 0.5
2016-Jun-20 22:33N 36°04' W 005°22'5 5.2
2016-Jun-20 21:33N 36°04' W 005°16'20 1.4
2016-Jun-20 07:25N 36°10' W 004°52'2 1.7
2016-Jun-20 06:31N 36°10' W 004°54'2 1.9
2016-Jun-20 05:31N 36°08' W 004°56'10 0.3
2016-Jun-18 18:33N 36°06' W 005°08'1 1.1
2016-Jun-18 17:34N 36°06' W 005°09'12 2.8
2016-Jun-18 13:19N 36°08' W 004°55'162 9.5
2016-Jun-17 20:10N 36°47' W 001°39'2313.4
2016-Jun-17 18:29N 37°01' W 001°17'1213.2
2016-Jun-17 17:33N 37°09' W 001°06'1312.6
2016-Jun-17 16:32N 37°22' W 001°00'  
Track history (hours):
 
Tides and Currents Weather Stations Pressure Air Temp Water Temp Dewpoint Dewpoint Depression Visibility Wind Speed Wind Dir Waves Ship Positions

Heydar Aliyev

Last reported at 2016-Jun-27 02:20 UTC. Time now 2016-Jun-27 22:19 UTC.
Position N 13°45' W 018°02'.

Length 274 m; draft 9.3 m.

Type: Tanker. MMSI: 215213000.

Date/timePositionNaut miles runAvg speedWind from/ knotsBaromVisibWave heightAir tempDewpointWater temp
2016-Jun-27 02:20N 13°45' W 018°02'1213.3
2016-Jun-27 01:27N 13°57' W 018°03'4413.7
2016-Jun-26 22:15N 14°41' W 018°06'1413.9
2016-Jun-26 21:14N 14°55' W 018°07'1013.3
2016-Jun-26 20:30N 15°05' W 018°08'  
2016-Jun-24 13:12N 26°41' W 015°25'1313.8
2016-Jun-24 12:17N 26°48' W 015°14'1013.8
2016-Jun-24 11:33N 26°54' W 015°05'1713.8
2016-Jun-24 10:20N 27°03' W 014°49'1214.0
2016-Jun-24 09:29N 27°08' W 014°37'16813.0
2016-Jun-23 20:33N 29°24' W 012°45'1414.1
2016-Jun-23 19:33N 29°37' W 012°36'1414.1
2016-Jun-23 18:33N 29°49' W 012°28'1413.6
2016-Jun-23 17:32N 30°01' W 012°20'1613.4
2016-Jun-23 16:20N 30°14' W 012°10'1113.6
2016-Jun-23 15:33N 30°23' W 012°04'9513.4
2016-Jun-23 08:29N 31°45' W 011°07'7 7.8
2016-Jun-23 07:33N 31°51' W 011°02'2713.6
2016-Jun-23 05:33N 32°14' W 010°46'1413.6
2016-Jun-23 04:33N 32°26' W 010°37'1313.6
2016-Jun-23 03:33N 32°37' W 010°29'1413.7
2016-Jun-23 02:33N 32°49' W 010°20'1413.6
2016-Jun-23 01:33N 32°59' W 010°09'1913.6
2016-Jun-23 00:11N 33°11' W 009°52'914.0
2016-Jun-22 23:33N 33°17' W 009°45'1613.9
2016-Jun-22 22:25N 33°28' W 009°31'1213.8
2016-Jun-22 21:31N 33°36' W 009°20'1414.0
2016-Jun-22 20:33N 33°45' W 009°08'1413.9
2016-Jun-22 19:32N 33°55' W 008°55'1413.8
2016-Jun-22 18:33N 34°04' W 008°43'1413.7
2016-Jun-22 17:31N 34°14' W 008°31'1313.5
2016-Jun-22 16:33N 34°22' W 008°19'1413.3
2016-Jun-22 15:32N 34°32' W 008°07'1313.2
2016-Jun-22 14:33N 34°40' W 007°55'1313.3
2016-Jun-22 13:33N 34°49' W 007°43'1313.5
2016-Jun-22 12:33N 34°58' W 007°31'1313.5
2016-Jun-22 11:33N 35°07' W 007°19'1513.6
2016-Jun-22 10:29N 35°17' W 007°06'2913.6
2016-Jun-22 08:19N 35°37' W 006°40'5712.0
2016-Jun-22 03:33N 35°59' W 005°34'1211.9
2016-Jun-22 02:33N 36°05' W 005°22'2 1.5
2016-Jun-22 01:33N 36°06' W 005°22'1 1.1
2016-Jun-22 00:33N 36°05' W 005°21'0 0.3
2016-Jun-21 23:33N 36°05' W 005°22'5 4.7
2016-Jun-21 22:30N 36°10' W 005°24'0 0.0
2016-Jun-21 21:33N 36°10' W 005°24'0 0.2
2016-Jun-21 20:33N 36°10' W 005°24'0 0.0
2016-Jun-21 19:33N 36°10' W 005°24'0 0.1
2016-Jun-21 18:27N 36°10' W 005°24'0 0.1
2016-Jun-21 17:33N 36°10' W 005°24'0 0.0
2016-Jun-21 16:33N 36°10' W 005°24'0 0.0
2016-Jun-21 15:33N 36°10' W 005°24'0 0.0
2016-Jun-21 14:33N 36°10' W 005°24'0 0.1
2016-Jun-21 13:21N 36°10' W 005°24'0 0.0
2016-Jun-21 12:33N 36°10' W 005°24'0 0.0
2016-Jun-21 11:33N 36°10' W 005°24'0 0.0
2016-Jun-21 10:30N 36°10' W 005°24'0 0.0
2016-Jun-21 09:33N 36°10' W 005°24'0 0.0
2016-Jun-21 08:33N 36°10' W 005°24'0 0.0
2016-Jun-21 07:33N 36°10' W 005°24'0 0.0
2016-Jun-21 04:33N 36°10' W 005°24'0 0.1
2016-Jun-21 03:30N 36°10' W 005°24'0 0.1
2016-Jun-21 02:30N 36°10' W 005°24'0 0.1
2016-Jun-21 01:30N 36°10' W 005°24'3 2.9
2016-Jun-21 00:33N 36°07' W 005°24'3 3.1
2016-Jun-20 23:33N 36°04' W 005°23'0 0.5
2016-Jun-20 22:33N 36°04' W 005°22'5 5.2
2016-Jun-20 21:33N 36°04' W 005°16'20 1.4
2016-Jun-20 07:25N 36°10' W 004°52'2 1.7
2016-Jun-20 06:31N 36°10' W 004°54'2 1.9
2016-Jun-20 05:31N 36°08' W 004°56'10 0.3
2016-Jun-18 18:33N 36°06' W 005°08'1 1.1
2016-Jun-18 17:34N 36°06' W 005°09'12 2.8
2016-Jun-18 13:19N 36°08' W 004°55'162 9.5
2016-Jun-17 20:10N 36°47' W 001°39'2313.4
2016-Jun-17 18:29N 37°01' W 001°17'1213.2
2016-Jun-17 17:33N 37°09' W 001°06'1312.6
2016-Jun-17 16:32N 37°22' W 001°00'  

Dump ship's entire track history